sensor_id;sensor_type;location;lat;lon;timestamp;pressure;altitude;pressure_sealevel;temperature;humidity
77889;BME280;67082;41.704;44.768;2023-12-20T00:01:45;96756.03;;;5.92;52.49
77889;BME280;67082;41.704;44.768;2023-12-20T00:04:13;96748.59;;;5.47;52.73
77889;BME280;67082;41.704;44.768;2023-12-20T00:06:42;96751.72;;;5.56;53.00
77889;BME280;67082;41.704;44.768;2023-12-20T00:09:10;96751.31;;;5.64;53.42
77889;BME280;67082;41.704;44.768;2023-12-20T00:11:39;96754.09;;;5.82;53.48
77889;BME280;67082;41.704;44.768;2023-12-20T00:14:07;96746.63;;;5.65;53.62
77889;BME280;67082;41.704;44.768;2023-12-20T00:16:35;96743.47;;;5.73;53.45
77889;BME280;67082;41.704;44.768;2023-12-20T00:19:03;96743.84;;;5.72;53.72
77889;BME280;67082;41.704;44.768;2023-12-20T00:21:32;96737.19;;;5.59;53.68
77889;BME280;67082;41.704;44.768;2023-12-20T00:24:00;96738.78;;;5.56;53.87
77889;BME280;67082;41.704;44.768;2023-12-20T00:26:28;96732.88;;;5.30;54.59
77889;BME280;67082;41.704;44.768;2023-12-20T00:28:57;96727.78;;;5.32;54.49
77889;BME280;67082;41.704;44.768;2023-12-20T00:31:26;96741.91;;;5.20;55.11
77889;BME280;67082;41.704;44.768;2023-12-20T00:33:54;96730.53;;;5.32;55.90
77889;BME280;67082;41.704;44.768;2023-12-20T00:36:23;96730.91;;;5.23;55.25
77889;BME280;67082;41.704;44.768;2023-12-20T00:38:51;96730.91;;;5.23;55.77
77889;BME280;67082;41.704;44.768;2023-12-20T00:41:20;96736.78;;;5.15;55.58
77889;BME280;67082;41.704;44.768;2023-12-20T00:43:48;96733.63;;;4.92;56.12
77889;BME280;67082;41.704;44.768;2023-12-20T00:46:16;96732.81;;;4.74;56.67
77889;BME280;67082;41.704;44.768;2023-12-20T00:48:46;96733.97;;;4.66;56.85
77889;BME280;67082;41.704;44.768;2023-12-20T00:51:14;96718.66;;;4.58;56.72
77889;BME280;67082;41.704;44.768;2023-12-20T00:53:42;96724.13;;;4.51;56.12
77889;BME280;67082;41.704;44.768;2023-12-20T00:56:11;96725.31;;;4.60;56.39
77889;BME280;67082;41.704;44.768;2023-12-20T00:58:39;96726.78;;;4.33;56.73
77889;BME280;67082;41.704;44.768;2023-12-20T01:01:08;96731.53;;;4.43;56.71
77889;BME280;67082;41.704;44.768;2023-12-20T01:03:36;96722.00;;;4.16;58.20
77889;BME280;67082;41.704;44.768;2023-12-20T01:06:05;96725.59;;;4.27;57.85
77889;BME280;67082;41.704;44.768;2023-12-20T01:08:33;96720.50;;;4.26;58.42
77889;BME280;67082;41.704;44.768;2023-12-20T01:11:06;96711.91;;;4.34;57.64
77889;BME280;67082;41.704;44.768;2023-12-20T01:13:37;96708.38;;;4.34;57.66
77889;BME280;67082;41.704;44.768;2023-12-20T01:16:05;96706.00;;;4.32;57.45
77889;BME280;67082;41.704;44.768;2023-12-20T01:18:33;96710.28;;;4.16;58.07
77889;BME280;67082;41.704;44.768;2023-12-20T01:21:05;96717.34;;;4.20;57.94
77889;BME280;67082;41.704;44.768;2023-12-20T01:23:33;96714.59;;;4.17;58.80
77889;BME280;67082;41.704;44.768;2023-12-20T01:26:01;96713.00;;;4.09;58.75
77889;BME280;67082;41.704;44.768;2023-12-20T01:28:30;96720.44;;;4.12;58.49
77889;BME280;67082;41.704;44.768;2023-12-20T01:30:58;96712.94;;;4.05;58.17
77889;BME280;67082;41.704;44.768;2023-12-20T01:33:27;96713.28;;;3.90;58.51
77889;BME280;67082;41.704;44.768;2023-12-20T01:35:56;96713.31;;;3.97;58.44
77889;BME280;67082;41.704;44.768;2023-12-20T01:38:24;96720.31;;;3.91;57.67
77889;BME280;67082;41.704;44.768;2023-12-20T01:40:52;96718.00;;;3.93;57.87
77889;BME280;67082;41.704;44.768;2023-12-20T01:43:20;96721.84;;;3.85;58.39
77889;BME280;67082;41.704;44.768;2023-12-20T01:45:51;96721.94;;;3.99;58.89
77889;BME280;67082;41.704;44.768;2023-12-20T01:48:21;96714.50;;;3.99;58.21
77889;BME280;67082;41.704;44.768;2023-12-20T01:50:51;96712.94;;;4.02;57.75
77889;BME280;67082;41.704;44.768;2023-12-20T01:53:21;96709.41;;;3.98;58.60
77889;BME280;67082;41.704;44.768;2023-12-20T01:55:54;96709.78;;;3.96;57.93
77889;BME280;67082;41.704;44.768;2023-12-20T01:58:23;96715.69;;;4.02;58.31
77889;BME280;67082;41.704;44.768;2023-12-20T02:00:51;96713.72;;;3.99;58.07
77889;BME280;67082;41.704;44.768;2023-12-20T02:03:20;96717.22;;;3.96;58.04
77889;BME280;67082;41.704;44.768;2023-12-20T02:05:49;96724.28;;;3.97;58.75
77889;BME280;67082;41.704;44.768;2023-12-20T02:08:18;96712.91;;;3.95;58.51
77889;BME280;67082;41.704;44.768;2023-12-20T02:10:48;96716.44;;;3.92;58.48
77889;BME280;67082;41.704;44.768;2023-12-20T02:13:16;96714.03;;;3.83;59.00
77889;BME280;67082;41.704;44.768;2023-12-20T02:15:45;96723.88;;;3.95;58.75
77889;BME280;67082;41.704;44.768;2023-12-20T02:18:13;96727.75;;;3.87;58.74
77889;BME280;67082;41.704;44.768;2023-12-20T02:20:45;96726.22;;;3.89;58.69
77889;BME280;67082;41.704;44.768;2023-12-20T02:23:13;96718.38;;;3.95;58.91
77889;BME280;67082;41.704;44.768;2023-12-20T02:25:42;96719.56;;;3.97;58.25
77889;BME280;67082;41.704;44.768;2023-12-20T02:28:10;96726.97;;;3.86;58.28
77889;BME280;67082;41.704;44.768;2023-12-20T02:30:39;96726.59;;;3.88;57.96
77889;BME280;67082;41.704;44.768;2023-12-20T02:33:14;96721.13;;;3.95;58.30
77889;BME280;67082;41.704;44.768;2023-12-20T02:35:43;96724.28;;;3.97;58.01
77889;BME280;67082;41.704;44.768;2023-12-20T02:38:11;96728.19;;;3.96;58.29
77889;BME280;67082;41.704;44.768;2023-12-20T02:40:40;96726.19;;;3.86;57.86
77889;BME280;67082;41.704;44.768;2023-12-20T02:43:16;96726.84;;;3.65;57.95
77889;BME280;67082;41.704;44.768;2023-12-20T02:45:44;96732.00;;;3.74;57.90
77889;BME280;67082;41.704;44.768;2023-12-20T02:48:12;96728.84;;;3.72;57.68
77889;BME280;67082;41.704;44.768;2023-12-20T02:50:41;96728.78;;;3.65;57.40
77889;BME280;67082;41.704;44.768;2023-12-20T02:53:09;96732.72;;;3.67;58.53
77889;BME280;67082;41.704;44.768;2023-12-20T02:55:40;96737.41;;;3.67;58.42
77889;BME280;67082;41.704;44.768;2023-12-20T02:58:10;96729.59;;;3.69;58.39
77889;BME280;67082;41.704;44.768;2023-12-20T03:00:38;96733.56;;;3.75;58.17
77889;BME280;67082;41.704;44.768;2023-12-20T03:03:06;96728.88;;;3.79;58.42
77889;BME280;67082;41.704;44.768;2023-12-20T03:05:35;96729.69;;;3.83;58.01
77889;BME280;67082;41.704;44.768;2023-12-20T03:08:03;96730.06;;;3.81;58.64
77889;BME280;67082;41.704;44.768;2023-12-20T03:10:32;96722.19;;;3.76;57.84
77889;BME280;67082;41.704;44.768;2023-12-20T03:13:00;96732.03;;;3.81;57.41
77889;BME280;67082;41.704;44.768;2023-12-20T03:15:28;96737.88;;;3.76;58.39
77889;BME280;67082;41.704;44.768;2023-12-20T03:17:56;96735.09;;;3.72;58.55
77889;BME280;67082;41.704;44.768;2023-12-20T03:20:27;96739.03;;;3.75;58.33
77889;BME280;67082;41.704;44.768;2023-12-20T03:22:55;96735.78;;;3.59;58.75
77889;BME280;67082;41.704;44.768;2023-12-20T03:25:23;96731.81;;;3.46;58.43
77889;BME280;67082;41.704;44.768;2023-12-20T03:27:52;96732.59;;;3.50;58.86
77889;BME280;67082;41.704;44.768;2023-12-20T03:30:21;96743.09;;;3.41;59.20
77889;BME280;67082;41.704;44.768;2023-12-20T03:32:49;96739.25;;;3.49;58.53
77889;BME280;67082;41.704;44.768;2023-12-20T03:35:17;96737.34;;;3.56;59.32
77889;BME280;67082;41.704;44.768;2023-12-20T03:37:45;96736.97;;;3.58;59.38
77889;BME280;67082;41.704;44.768;2023-12-20T03:40:14;96735.44;;;3.64;59.15
77889;BME280;67082;41.704;44.768;2023-12-20T03:42:42;96745.22;;;3.65;58.62
77889;BME280;67082;41.704;44.768;2023-12-20T03:45:11;96742.88;;;3.63;58.75
77889;BME280;67082;41.704;44.768;2023-12-20T03:47:39;96739.38;;;3.66;58.92
77889;BME280;67082;41.704;44.768;2023-12-20T03:50:08;96736.63;;;3.63;59.10
77889;BME280;67082;41.704;44.768;2023-12-20T03:52:36;96740.13;;;3.63;59.64
77889;BME280;67082;41.704;44.768;2023-12-20T03:55:04;96741.31;;;3.66;59.27
77889;BME280;67082;41.704;44.768;2023-12-20T03:57:32;96739.75;;;3.65;59.55
77889;BME280;67082;41.704;44.768;2023-12-20T04:00:01;96742.03;;;3.59;58.96
77889;BME280;67082;41.704;44.768;2023-12-20T04:02:39;96747.47;;;3.52;59.23
77889;BME280;67082;41.704;44.768;2023-12-20T04:05:09;96750.19;;;3.49;59.76
77889;BME280;67082;41.704;44.768;2023-12-20T04:07:38;96742.75;;;3.42;59.14
77889;BME280;67082;41.704;44.768;2023-12-20T04:10:07;96744.78;;;3.09;59.27
77889;BME280;67082;41.704;44.768;2023-12-20T04:12:36;96740.06;;;3.06;59.27
77889;BME280;67082;41.704;44.768;2023-12-20T04:15:04;96742.59;;;3.25;59.23
77889;BME280;67082;41.704;44.768;2023-12-20T04:17:38;96743.81;;;3.34;60.11
77889;BME280;67082;41.704;44.768;2023-12-20T04:20:07;96730.59;;;3.40;58.88
77889;BME280;67082;41.704;44.768;2023-12-20T04:22:35;96733.34;;;3.43;59.69
77889;BME280;67082;41.704;44.768;2023-12-20T04:25:07;96733.66;;;3.35;59.36
77889;BME280;67082;41.704;44.768;2023-12-20T04:27:36;96727.84;;;3.40;59.37
77889;BME280;67082;41.704;44.768;2023-12-20T04:30:05;96740.31;;;3.34;59.48
77889;BME280;67082;41.704;44.768;2023-12-20T04:32:33;96734.00;;;3.26;59.18
77889;BME280;67082;41.704;44.768;2023-12-20T04:35:02;96730.13;;;3.34;59.73
77889;BME280;67082;41.704;44.768;2023-12-20T04:37:30;96728.63;;;3.40;59.51
77889;BME280;67082;41.704;44.768;2023-12-20T04:39:58;96737.59;;;3.37;59.91
77889;BME280;67082;41.704;44.768;2023-12-20T04:42:27;96736.06;;;3.40;59.59
77889;BME280;67082;41.704;44.768;2023-12-20T04:44:55;96738.75;;;3.36;59.43
77889;BME280;67082;41.704;44.768;2023-12-20T04:47:23;96741.97;;;3.49;59.56
77889;BME280;67082;41.704;44.768;2023-12-20T04:49:51;96745.91;;;3.48;60.09
77889;BME280;67082;41.704;44.768;2023-12-20T04:52:20;96750.22;;;3.52;59.66
77889;BME280;67082;41.704;44.768;2023-12-20T04:54:48;96755.22;;;3.40;59.57
77889;BME280;67082;41.704;44.768;2023-12-20T04:57:16;96765.75;;;3.34;60.27
77889;BME280;67082;41.704;44.768;2023-12-20T04:59:45;96764.66;;;3.46;60.05
77889;BME280;67082;41.704;44.768;2023-12-20T05:02:13;96763.91;;;3.49;59.46
77889;BME280;67082;41.704;44.768;2023-12-20T05:04:41;96761.13;;;3.45;59.45
77889;BME280;67082;41.704;44.768;2023-12-20T05:07:10;96767.44;;;3.49;59.56
77889;BME280;67082;41.704;44.768;2023-12-20T05:09:38;96770.03;;;3.32;59.90
77889;BME280;67082;41.704;44.768;2023-12-20T05:12:07;96774.31;;;3.29;59.73
77889;BME280;67082;41.704;44.768;2023-12-20T05:14:36;96775.03;;;3.23;60.11
77889;BME280;67082;41.704;44.768;2023-12-20T05:17:04;96778.59;;;3.30;59.25
77889;BME280;67082;41.704;44.768;2023-12-20T05:19:35;96773.97;;;3.38;59.99
77889;BME280;67082;41.704;44.768;2023-12-20T05:22:04;96777.97;;;3.47;60.30
77889;BME280;67082;41.704;44.768;2023-12-20T05:24:35;96784.66;;;3.50;60.16
77889;BME280;67082;41.704;44.768;2023-12-20T05:27:03;96788.19;;;3.50;60.25
77889;BME280;67082;41.704;44.768;2023-12-20T05:29:31;96785.06;;;3.52;59.65
77889;BME280;67082;41.704;44.768;2023-12-20T05:31:59;96787.31;;;3.39;59.28
77889;BME280;67082;41.704;44.768;2023-12-20T05:34:27;96785.47;;;3.54;59.93
77889;BME280;67082;41.704;44.768;2023-12-20T05:36:57;96784.25;;;3.48;58.90
77889;BME280;67082;41.704;44.768;2023-12-20T05:39:26;96786.63;;;3.53;58.67
77889;BME280;67082;41.704;44.768;2023-12-20T05:41:57;96787.81;;;3.52;59.09
77889;BME280;67082;41.704;44.768;2023-12-20T05:44:25;96793.75;;;3.61;58.76
77889;BME280;67082;41.704;44.768;2023-12-20T05:46:54;96789.06;;;3.65;58.59
77889;BME280;67082;41.704;44.768;2023-12-20T05:49:22;96786.81;;;3.74;58.78
77889;BME280;67082;41.704;44.768;2023-12-20T05:51:51;96782.53;;;3.80;58.97
77889;BME280;67082;41.704;44.768;2023-12-20T05:54:19;96768.06;;;3.83;59.56
77889;BME280;67082;41.704;44.768;2023-12-20T05:56:47;96787.72;;;3.92;58.52
77889;BME280;67082;41.704;44.768;2023-12-20T05:59:16;96779.06;;;3.93;59.04
77889;BME280;67082;41.704;44.768;2023-12-20T06:01:43;96775.59;;;4.00;58.71
77889;BME280;67082;41.704;44.768;2023-12-20T06:04:12;96783.84;;;4.00;58.40
77889;BME280;67082;41.704;44.768;2023-12-20T06:06:42;96785.81;;;4.03;58.57
77889;BME280;67082;41.704;44.768;2023-12-20T06:09:11;96781.47;;;4.02;58.84
77889;BME280;67082;41.704;44.768;2023-12-20T06:11:39;96781.50;;;4.05;59.28
77889;BME280;67082;41.704;44.768;2023-12-20T06:14:07;96781.09;;;4.00;59.10
77889;BME280;67082;41.704;44.768;2023-12-20T06:16:35;96779.88;;;3.94;58.56
77889;BME280;67082;41.704;44.768;2023-12-20T06:19:04;96779.16;;;4.04;58.69
77889;BME280;67082;41.704;44.768;2023-12-20T06:21:34;96785.44;;;4.08;58.87
77889;BME280;67082;41.704;44.768;2023-12-20T06:24:03;96790.19;;;4.14;58.26
77889;BME280;67082;41.704;44.768;2023-12-20T06:26:31;96786.28;;;4.19;58.36
77889;BME280;67082;41.704;44.768;2023-12-20T06:28:59;96776.13;;;4.23;58.79
77889;BME280;67082;41.704;44.768;2023-12-20T06:31:27;96788.28;;;4.25;59.03
77889;BME280;67082;41.704;44.768;2023-12-20T06:33:55;96790.31;;;4.35;59.18
77889;BME280;67082;41.704;44.768;2023-12-20T06:36:26;96780.16;;;4.43;59.18
77889;BME280;67082;41.704;44.768;2023-12-20T06:38:54;96781.72;;;4.44;58.42
77889;BME280;67082;41.704;44.768;2023-12-20T06:41:22;96788.00;;;4.51;58.89
77889;BME280;67082;41.704;44.768;2023-12-20T06:43:52;96789.22;;;4.57;58.99
77889;BME280;67082;41.704;44.768;2023-12-20T06:46:21;96789.63;;;4.59;58.82
77889;BME280;67082;41.704;44.768;2023-12-20T06:48:49;96787.69;;;4.67;58.26
77889;BME280;67082;41.704;44.768;2023-12-20T06:51:18;96783.38;;;4.66;57.82
77889;BME280;67082;41.704;44.768;2023-12-20T06:53:48;96792.00;;;4.64;57.16
77889;BME280;67082;41.704;44.768;2023-12-20T06:56:16;96780.22;;;4.64;57.09
77889;BME280;67082;41.704;44.768;2023-12-20T06:58:47;96776.34;;;4.79;57.53
77889;BME280;67082;41.704;44.768;2023-12-20T07:01:15;96775.94;;;4.77;57.19
77889;BME280;67082;41.704;44.768;2023-12-20T07:04:06;96775.56;;;4.82;57.20
77889;BME280;67082;41.704;44.768;2023-12-20T07:06:34;96776.00;;;4.87;57.15
77889;BME280;67082;41.704;44.768;2023-12-20T07:09:02;96769.34;;;4.99;57.47
77889;BME280;67082;41.704;44.768;2023-12-20T07:11:31;96773.25;;;5.01;57.73
77889;BME280;67082;41.704;44.768;2023-12-20T07:13:59;96769.38;;;5.09;56.24
77889;BME280;67082;41.704;44.768;2023-12-20T07:16:29;96765.81;;;5.09;55.60
77889;BME280;67082;41.704;44.768;2023-12-20T07:18:57;96765.44;;;5.21;56.21
77889;BME280;67082;41.704;44.768;2023-12-20T07:21:26;96762.31;;;5.29;56.61
77889;BME280;67082;41.704;44.768;2023-12-20T07:23:54;96756.81;;;5.26;56.45
77889;BME280;67082;41.704;44.768;2023-12-20T07:26:25;96750.56;;;5.36;56.88
77889;BME280;67082;41.704;44.768;2023-12-20T07:28:53;96745.81;;;5.43;56.44
77889;BME280;67082;41.704;44.768;2023-12-20T07:31:21;96739.56;;;5.50;56.55
77889;BME280;67082;41.704;44.768;2023-12-20T07:33:50;96743.47;;;5.56;55.53
77889;BME280;67082;41.704;44.768;2023-12-20T07:36:19;96731.72;;;5.59;55.37
77889;BME280;67082;41.704;44.768;2023-12-20T07:38:47;96732.88;;;5.61;55.29
77889;BME280;67082;41.704;44.768;2023-12-20T07:41:15;96721.47;;;5.66;56.70
77889;BME280;67082;41.704;44.768;2023-12-20T07:43:44;96719.91;;;5.72;55.41
77889;BME280;67082;41.704;44.768;2023-12-20T07:46:12;96719.09;;;5.79;56.09
77889;BME280;67082;41.704;44.768;2023-12-20T07:48:40;96712.03;;;5.92;57.78
77889;BME280;67082;41.704;44.768;2023-12-20T07:51:12;96712.34;;;6.11;58.43
77889;BME280;67082;41.704;44.768;2023-12-20T07:53:40;96703.31;;;6.18;57.00
77889;BME280;67082;41.704;44.768;2023-12-20T07:56:16;96698.56;;;6.25;56.72
77889;BME280;67082;41.704;44.768;2023-12-20T07:58:47;96695.78;;;6.32;56.08
77889;BME280;67082;41.704;44.768;2023-12-20T08:01:20;96690.66;;;6.34;55.99
77889;BME280;67082;41.704;44.768;2023-12-20T08:03:53;96683.97;;;6.35;55.55
77889;BME280;67082;41.704;44.768;2023-12-20T08:06:22;96684.78;;;6.29;55.30
77889;BME280;67082;41.704;44.768;2023-12-20T08:08:50;96674.22;;;6.17;55.94
77889;BME280;67082;41.704;44.768;2023-12-20T08:11:29;96670.63;;;6.34;55.23
77889;BME280;67082;41.704;44.768;2023-12-20T08:13:58;96666.25;;;6.43;55.26
77889;BME280;67082;41.704;44.768;2023-12-20T08:16:26;96657.13;;;6.57;54.56
77889;BME280;67082;41.704;44.768;2023-12-20T08:18:57;96656.63;;;6.72;54.55
77889;BME280;67082;41.704;44.768;2023-12-20T08:21:25;96658.13;;;6.84;53.50
77889;BME280;67082;41.704;44.768;2023-12-20T08:23:54;96641.13;;;6.92;53.12
77889;BME280;67082;41.704;44.768;2023-12-20T08:26:22;96633.59;;;7.00;53.01
77889;BME280;67082;41.704;44.768;2023-12-20T08:28:52;96633.53;;;7.10;53.44
77889;BME280;67082;41.704;44.768;2023-12-20T08:31:20;96635.41;;;7.20;53.40
77889;BME280;67082;41.704;44.768;2023-12-20T08:33:49;96627.06;;;7.27;53.38
77889;BME280;67082;41.704;44.768;2023-12-20T08:36:18;96631.75;;;7.34;53.12
77889;BME280;67082;41.704;44.768;2023-12-20T08:38:50;96626.59;;;7.39;52.92
77889;BME280;67082;41.704;44.768;2023-12-20T08:41:18;96619.78;;;7.47;51.81
77889;BME280;67082;41.704;44.768;2023-12-20T08:43:48;96619.31;;;7.56;52.05
77889;BME280;67082;41.704;44.768;2023-12-20T08:46:16;96622.00;;;7.63;51.84
77889;BME280;67082;41.704;44.768;2023-12-20T08:48:46;96609.31;;;7.69;51.40
77889;BME280;67082;41.704;44.768;2023-12-20T08:51:15;96612.75;;;7.80;51.40
77889;BME280;67082;41.704;44.768;2023-12-20T08:53:44;96602.47;;;7.84;50.19
77889;BME280;67082;41.704;44.768;2023-12-20T08:56:13;96600.41;;;7.91;50.51
77889;BME280;67082;41.704;44.768;2023-12-20T08:58:41;96590.88;;;7.96;51.28
77889;BME280;67082;41.704;44.768;2023-12-20T09:01:09;96593.16;;;8.04;51.00
77889;BME280;67082;41.704;44.768;2023-12-20T09:03:39;96589.19;;;8.05;50.89
77889;BME280;67082;41.704;44.768;2023-12-20T09:06:07;96590.66;;;8.13;50.91
77889;BME280;67082;41.704;44.768;2023-12-20T09:08:36;96581.97;;;8.15;50.07
77889;BME280;67082;41.704;44.768;2023-12-20T09:11:03;96583.47;;;8.19;50.49
77889;BME280;67082;41.704;44.768;2023-12-20T09:13:32;96570.03;;;8.25;49.93
77889;BME280;67082;41.704;44.768;2023-12-20T09:16:09;96564.06;;;8.30;50.20
77889;BME280;67082;41.704;44.768;2023-12-20T09:18:38;96565.91;;;8.36;49.93
77889;BME280;67082;41.704;44.768;2023-12-20T09:21:06;96557.59;;;8.40;49.62
77889;BME280;67082;41.704;44.768;2023-12-20T09:23:37;96553.19;;;8.46;50.36
77889;BME280;67082;41.704;44.768;2023-12-20T09:26:06;96544.50;;;8.44;49.00
77889;BME280;67082;41.704;44.768;2023-12-20T09:28:34;96542.69;;;8.34;49.81
77889;BME280;67082;41.704;44.768;2023-12-20T09:31:06;96546.44;;;8.47;49.34
77889;BME280;67082;41.704;44.768;2023-12-20T09:33:35;96541.91;;;8.60;49.48
77889;BME280;67082;41.704;44.768;2023-12-20T09:36:03;96534.28;;;8.67;48.96
77889;BME280;67082;41.704;44.768;2023-12-20T09:38:32;96532.94;;;8.26;48.77
77889;BME280;67082;41.704;44.768;2023-12-20T09:41:00;96535.75;;;8.49;48.82
77889;BME280;67082;41.704;44.768;2023-12-20T09:43:35;96532.72;;;8.66;47.93
77889;BME280;67082;41.704;44.768;2023-12-20T09:46:06;96527.50;;;8.72;48.26
77889;BME280;67082;41.704;44.768;2023-12-20T09:48:39;96526.72;;;8.71;49.11
77889;BME280;67082;41.704;44.768;2023-12-20T09:51:08;96521.84;;;8.79;49.20
77889;BME280;67082;41.704;44.768;2023-12-20T09:53:40;96518.88;;;8.93;48.57
77889;BME280;67082;41.704;44.768;2023-12-20T09:56:10;96521.63;;;8.93;48.93
77889;BME280;67082;41.704;44.768;2023-12-20T09:58:40;96516.78;;;9.00;49.70
77889;BME280;67082;41.704;44.768;2023-12-20T10:01:09;96514.28;;;9.06;48.24
77889;BME280;67082;41.704;44.768;2023-12-20T10:03:39;96508.63;;;9.13;48.18
77889;BME280;67082;41.704;44.768;2023-12-20T10:06:09;96509.34;;;9.17;48.83
77889;BME280;67082;41.704;44.768;2023-12-20T10:08:38;96504.09;;;9.22;49.99
77889;BME280;67082;41.704;44.768;2023-12-20T10:11:07;96499.03;;;9.21;49.43
77889;BME280;67082;41.704;44.768;2023-12-20T10:13:40;96503.34;;;9.22;48.30
77889;BME280;67082;41.704;44.768;2023-12-20T10:16:09;96493.41;;;9.24;49.01
77889;BME280;67082;41.704;44.768;2023-12-20T10:18:37;96495.25;;;9.31;49.14
77889;BME280;67082;41.704;44.768;2023-12-20T10:21:07;96495.63;;;9.33;48.54
77889;BME280;67082;41.704;44.768;2023-12-20T10:23:38;96490.78;;;9.37;48.78
77889;BME280;67082;41.704;44.768;2023-12-20T10:26:07;96490.78;;;9.37;47.74
77889;BME280;67082;41.704;44.768;2023-12-20T10:28:36;96488.75;;;9.41;48.91
77889;BME280;67082;41.704;44.768;2023-12-20T10:31:05;96488.13;;;9.53;49.64
77889;BME280;67082;41.704;44.768;2023-12-20T10:33:33;96481.34;;;9.34;48.66
77889;BME280;67082;41.704;44.768;2023-12-20T10:36:02;96480.75;;;9.27;48.45
77889;BME280;67082;41.704;44.768;2023-12-20T10:38:31;96475.72;;;9.41;48.69
77889;BME280;67082;41.704;44.768;2023-12-20T10:41:00;96473.16;;;9.50;48.40
77889;BME280;67082;41.704;44.768;2023-12-20T10:43:30;96468.09;;;9.45;48.37
77889;BME280;67082;41.704;44.768;2023-12-20T10:46:03;96463.63;;;9.51;48.74
77889;BME280;67082;41.704;44.768;2023-12-20T10:48:34;96462.78;;;9.54;48.23
77889;BME280;67082;41.704;44.768;2023-12-20T10:51:04;96454.75;;;9.60;47.61
77889;BME280;67082;41.704;44.768;2023-12-20T10:53:33;96448.66;;;9.49;48.17
77889;BME280;67082;41.704;44.768;2023-12-20T10:56:06;96449.22;;;9.60;48.03
77889;BME280;67082;41.704;44.768;2023-12-20T10:58:39;96447.00;;;9.55;47.34
77889;BME280;67082;41.704;44.768;2023-12-20T11:01:15;96453.78;;;9.70;47.75
77889;BME280;67082;41.704;44.768;2023-12-20T11:03:52;96443.25;;;9.81;47.13
77889;BME280;67082;41.704;44.768;2023-12-20T11:06:45;96441.16;;;9.69;47.46
77889;BME280;67082;41.704;44.768;2023-12-20T11:09:24;96443.75;;;9.76;47.33
77889;BME280;67082;41.704;44.768;2023-12-20T11:14:41;96431.94;;;9.91;47.83
77889;BME280;67082;41.704;44.768;2023-12-20T11:17:11;96433.94;;;9.91;47.77
77889;BME280;67082;41.704;44.768;2023-12-20T11:22:33;96431.34;;;10.00;48.26
77889;BME280;67082;41.704;44.768;2023-12-20T11:25:10;96426.78;;;9.93;48.20
77889;BME280;67082;41.704;44.768;2023-12-20T11:27:43;96431.88;;;9.95;47.83
77889;BME280;67082;41.704;44.768;2023-12-20T11:30:14;96428.03;;;9.89;47.55
77889;BME280;67082;41.704;44.768;2023-12-20T11:32:45;96427.88;;;9.80;47.78
77889;BME280;67082;41.704;44.768;2023-12-20T11:37:42;96420.78;;;9.79;48.08
77889;BME280;67082;41.704;44.768;2023-12-20T11:40:14;96420.44;;;9.93;47.48
77889;BME280;67082;41.704;44.768;2023-12-20T11:42:46;96426.66;;;9.81;47.65
77889;BME280;67082;41.704;44.768;2023-12-20T11:45:19;96424.47;;;9.72;48.12
77889;BME280;67082;41.704;44.768;2023-12-20T12:15:04;96415.94;;;9.63;47.33
77889;BME280;67082;41.704;44.768;2023-12-20T12:24:08;96417.16;;;9.62;46.98
77889;BME280;67082;41.704;44.768;2023-12-20T12:26:37;96421.56;;;9.60;47.19
77889;BME280;67082;41.704;44.768;2023-12-20T12:29:07;96420.41;;;9.41;47.81
77889;BME280;67082;41.704;44.768;2023-12-20T12:31:35;96428.88;;;9.31;48.15
77889;BME280;67082;41.704;44.768;2023-12-20T12:34:04;96427.91;;;9.41;47.53
77889;BME280;67082;41.704;44.768;2023-12-20T12:36:32;96430.59;;;9.64;47.29
77889;BME280;67082;41.704;44.768;2023-12-20T12:39:05;96419.66;;;9.76;47.55
77889;BME280;67082;41.704;44.768;2023-12-20T12:41:33;96429.59;;;9.74;47.82
77889;BME280;67082;41.704;44.768;2023-12-20T12:44:02;96418.00;;;9.79;47.18
77889;BME280;67082;41.704;44.768;2023-12-20T12:46:47;96401.50;;;9.75;46.83
77889;BME280;67082;41.704;44.768;2023-12-20T12:49:20;96411.06;;;9.71;46.89
77889;BME280;67082;41.704;44.768;2023-12-20T12:51:51;96407.94;;;9.69;47.00
77889;BME280;67082;41.704;44.768;2023-12-20T12:54:19;96405.00;;;9.76;46.80
77889;BME280;67082;41.704;44.768;2023-12-20T12:56:50;96402.34;;;9.72;46.90
77889;BME280;67082;41.704;44.768;2023-12-20T12:59:20;96396.53;;;9.67;46.92
77889;BME280;67082;41.704;44.768;2023-12-20T13:01:49;96397.59;;;9.73;46.75
77889;BME280;67082;41.704;44.768;2023-12-20T13:04:17;96396.56;;;9.83;46.31
77889;BME280;67082;41.704;44.768;2023-12-20T13:06:45;96395.69;;;9.86;46.59
77889;BME280;67082;41.704;44.768;2023-12-20T13:09:15;96389.47;;;9.82;46.74
77889;BME280;67082;41.704;44.768;2023-12-20T13:11:43;96398.59;;;9.63;46.19
77889;BME280;67082;41.704;44.768;2023-12-20T13:14:12;96399.31;;;9.67;46.72
77889;BME280;67082;41.704;44.768;2023-12-20T13:16:43;96393.94;;;9.76;46.91
77889;BME280;67082;41.704;44.768;2023-12-20T13:19:12;96394.66;;;9.80;46.78
77889;BME280;67082;41.704;44.768;2023-12-20T13:21:41;96394.38;;;9.74;47.09
77889;BME280;67082;41.704;44.768;2023-12-20T13:24:09;96395.81;;;9.63;47.28
77889;BME280;67082;41.704;44.768;2023-12-20T13:26:37;96392.00;;;9.57;47.12
77889;BME280;67082;41.704;44.768;2023-12-20T13:29:06;96388.91;;;9.55;47.63
77889;BME280;67082;41.704;44.768;2023-12-20T13:31:35;96388.03;;;9.58;47.62
77889;BME280;67082;41.704;44.768;2023-12-20T13:34:05;96389.94;;;9.61;47.34
77889;BME280;67082;41.704;44.768;2023-12-20T13:36:33;96387.53;;;9.63;47.36
77889;BME280;67082;41.704;44.768;2023-12-20T13:39:03;96393.13;;;9.59;47.09
77889;BME280;67082;41.704;44.768;2023-12-20T13:41:32;96390.44;;;9.56;47.75
77889;BME280;67082;41.704;44.768;2023-12-20T13:44:01;96392.16;;;9.50;46.97
77889;BME280;67082;41.704;44.768;2023-12-20T13:46:31;96396.56;;;9.47;47.82
77889;BME280;67082;41.704;44.768;2023-12-20T13:48:59;96396.69;;;9.40;47.89
77889;BME280;67082;41.704;44.768;2023-12-20T13:51:30;96401.59;;;9.33;47.66
77889;BME280;67082;41.704;44.768;2023-12-20T13:53:58;96398.47;;;9.31;48.27